createdAt,value
2023-05-22T00:01:47.985Z,4.70
2023-05-22T00:04:22.588Z,5.32
2023-05-22T00:06:51.157Z,5.43
2023-05-22T00:09:19.244Z,5.35
2023-05-22T00:11:47.432Z,5.65
2023-05-22T00:14:15.502Z,5.68
2023-05-22T00:16:43.994Z,5.82
2023-05-22T00:19:14.485Z,5.35
2023-05-22T00:21:42.527Z,5.40
2023-05-22T00:24:10.898Z,5.22
2023-05-22T00:26:38.814Z,6.57
2023-05-22T00:29:10.718Z,6.80
2023-05-22T00:31:38.746Z,4.43
2023-05-22T00:34:06.901Z,5.20
2023-05-22T00:36:34.974Z,5.37
2023-05-22T00:39:02.966Z,5.07
2023-05-22T00:41:31.607Z,6.05
2023-05-22T00:43:59.565Z,5.25
2023-05-22T00:46:27.721Z,6.07
2023-05-22T00:48:55.850Z,5.10
2023-05-22T00:51:23.991Z,5.90
2023-05-22T00:53:53.277Z,6.75
2023-05-22T00:56:22.696Z,6.50
2023-05-22T00:58:51.153Z,6.62
2023-05-22T01:01:19.151Z,5.70
2023-05-22T01:03:48.128Z,6.15
2023-05-22T01:06:19.264Z,6.65
2023-05-22T01:08:47.303Z,5.95
2023-05-22T01:11:20.930Z,5.70
2023-05-22T01:14:03.842Z,6.10
2023-05-22T01:16:40.842Z,6.45
2023-05-22T01:19:27.567Z,5.55
2023-05-22T01:22:37.182Z,5.72
2023-05-22T01:25:18.358Z,5.68
2023-05-22T01:28:10.524Z,5.40
2023-05-22T01:30:38.623Z,5.87
2023-05-22T01:33:09.617Z,7.12
2023-05-22T01:35:40.617Z,5.68
2023-05-22T01:38:10.370Z,5.82
2023-05-22T01:40:39.291Z,7.62
2023-05-22T01:43:07.939Z,6.00
2023-05-22T01:45:36.338Z,6.00
2023-05-22T01:48:04.364Z,9.40
2023-05-22T01:50:32.612Z,6.43
2023-05-22T01:53:21.132Z,7.00
2023-05-22T01:56:22.399Z,6.32
2023-05-22T01:59:13.239Z,6.60
2023-05-22T02:01:42.836Z,6.62
2023-05-22T02:04:12.089Z,6.72
2023-05-22T02:06:40.958Z,6.18
2023-05-22T02:09:10.161Z,7.78
2023-05-22T02:11:39.728Z,7.37
2023-05-22T02:14:07.941Z,7.53
2023-05-22T02:16:36.388Z,7.80
2023-05-22T02:19:07.668Z,7.15
2023-05-22T02:21:37.222Z,6.82
2023-05-22T02:24:05.354Z,6.95
2023-05-22T02:26:33.300Z,7.43
2023-05-22T02:29:01.200Z,7.05
2023-05-22T02:31:29.104Z,8.00
2023-05-22T02:33:57.833Z,7.25
2023-05-22T02:36:27.484Z,7.18
2023-05-22T02:38:56.753Z,7.85
2023-05-22T02:41:24.782Z,7.85
2023-05-22T02:43:52.701Z,7.68
2023-05-22T02:46:20.648Z,7.15
2023-05-22T02:48:48.695Z,7.12
2023-05-22T02:51:16.796Z,7.90
2023-05-22T02:53:44.791Z,7.07
2023-05-22T02:56:13.390Z,7.28
2023-05-22T02:58:41.478Z,6.80
2023-05-22T03:01:10.334Z,7.78
2023-05-22T03:03:38.298Z,8.02
2023-05-22T03:06:06.597Z,7.47
2023-05-22T03:08:34.592Z,7.97
2023-05-22T03:11:03.149Z,7.95
2023-05-22T03:13:31.117Z,7.15
2023-05-22T03:15:59.140Z,8.23
2023-05-22T03:18:27.884Z,7.00
2023-05-22T03:20:55.915Z,8.20
2023-05-22T03:23:23.903Z,7.68
2023-05-22T03:25:52.532Z,7.47
2023-05-22T03:28:20.427Z,7.35
2023-05-22T03:30:48.883Z,8.52
2023-05-22T03:33:16.985Z,7.80
2023-05-22T03:35:45.895Z,7.72
2023-05-22T03:38:13.868Z,8.57
2023-05-22T03:40:42.040Z,8.23
2023-05-22T03:43:10.157Z,10.13
2023-05-22T03:45:38.087Z,8.45
2023-05-22T03:48:06.136Z,7.60
2023-05-22T03:50:34.049Z,7.55
2023-05-22T03:53:02.554Z,7.45
2023-05-22T03:55:32.167Z,8.02
2023-05-22T03:58:00.063Z,7.93
2023-05-22T04:00:28.000Z,7.18
2023-05-22T04:02:56.162Z,8.02
2023-05-22T04:05:24.263Z,8.35
2023-05-22T04:07:52.292Z,7.70
2023-05-22T04:10:23.814Z,9.38
2023-05-22T04:12:52.082Z,8.15
2023-05-22T04:15:19.996Z,8.15
2023-05-22T04:17:48.652Z,7.78
2023-05-22T04:20:16.986Z,7.70
2023-05-22T04:22:47.081Z,7.72
2023-05-22T04:25:15.199Z,7.93
2023-05-22T04:27:43.743Z,7.45
2023-05-22T04:30:11.845Z,7.68
2023-05-22T04:32:39.837Z,9.55
2023-05-22T04:35:08.121Z,9.45
2023-05-22T04:37:37.152Z,7.50
2023-05-22T04:40:08.741Z,8.27
2023-05-22T04:42:36.729Z,11.35
2023-05-22T04:45:05.705Z,9.25
2023-05-22T04:47:33.712Z,8.27
2023-05-22T04:50:02.360Z,9.88
2023-05-22T04:52:30.279Z,9.23
2023-05-22T04:55:00.689Z,11.10
2023-05-22T04:57:29.139Z,9.45
2023-05-22T04:59:58.350Z,9.70
2023-05-22T05:02:26.410Z,10.65
2023-05-22T05:04:54.484Z,9.70
2023-05-22T05:07:22.873Z,9.52
2023-05-22T05:09:50.944Z,9.43
2023-05-22T05:12:18.891Z,11.27
2023-05-22T05:14:46.841Z,9.48
2023-05-22T05:17:15.153Z,11.15
2023-05-22T05:19:43.087Z,9.95
2023-05-22T05:22:11.039Z,10.55
2023-05-22T05:24:39.028Z,9.35
2023-05-22T05:27:07.355Z,9.35
2023-05-22T05:29:35.237Z,9.30
2023-05-22T05:32:03.272Z,9.07
2023-05-22T05:34:31.202Z,9.45
2023-05-22T05:36:59.294Z,10.73
2023-05-22T05:39:27.281Z,10.15
2023-05-22T05:41:55.373Z,8.88
2023-05-22T05:44:23.268Z,9.00
2023-05-22T05:46:51.332Z,8.57
2023-05-22T05:49:20.870Z,8.55
2023-05-22T05:51:48.800Z,7.97
2023-05-22T05:54:17.347Z,8.57
2023-05-22T05:56:45.329Z,9.05
2023-05-22T05:59:13.303Z,8.35
2023-05-22T06:01:45.808Z,9.63
2023-05-22T06:04:14.692Z,8.27
2023-05-22T06:06:43.824Z,9.07
2023-05-22T06:09:12.230Z,7.87
2023-05-22T06:11:40.194Z,12.00
2023-05-22T06:14:09.748Z,7.55
2023-05-22T06:16:37.764Z,8.98
2023-05-22T06:19:06.041Z,8.35
2023-05-22T06:21:33.993Z,8.73
2023-05-22T06:24:02.022Z,8.98
2023-05-22T06:26:30.173Z,7.65
2023-05-22T06:28:58.144Z,8.05
2023-05-22T06:31:26.504Z,8.02
2023-05-22T06:33:54.519Z,7.50
2023-05-22T06:36:22.538Z,7.15
2023-05-22T06:38:50.974Z,7.90
2023-05-22T06:41:18.947Z,8.25
2023-05-22T06:43:46.971Z,8.45
2023-05-22T06:46:14.909Z,8.65
2023-05-22T06:48:43.322Z,9.00
2023-05-22T06:51:12.993Z,8.68
2023-05-22T06:53:40.950Z,10.55
2023-05-22T06:56:09.168Z,9.30
2023-05-22T06:58:37.375Z,8.95
2023-05-22T07:01:05.642Z,9.35
2023-05-22T07:03:33.651Z,9.13
2023-05-22T07:06:01.703Z,9.45
2023-05-22T07:08:30.745Z,10.90
2023-05-22T07:10:58.906Z,8.90
2023-05-22T07:13:27.192Z,8.77
2023-05-22T07:15:55.106Z,9.50
2023-05-22T07:18:23.057Z,9.77
2023-05-22T07:20:50.943Z,8.27
2023-05-22T07:23:18.844Z,9.57
2023-05-22T07:25:46.864Z,8.02
2023-05-22T07:28:14.816Z,8.50
2023-05-22T07:30:42.844Z,9.38
2023-05-22T07:33:10.840Z,7.93
2023-05-22T07:35:38.993Z,9.38
2023-05-22T07:38:07.113Z,8.30
2023-05-22T07:40:35.055Z,7.90
2023-05-22T07:43:03.000Z,8.25
2023-05-22T07:45:32.078Z,7.97
2023-05-22T07:48:00.425Z,7.75
2023-05-22T07:50:28.436Z,6.18
2023-05-22T07:52:56.416Z,5.90
2023-05-22T07:55:24.367Z,5.97
2023-05-22T07:57:52.670Z,7.70
2023-05-22T08:00:21.246Z,5.60
2023-05-22T08:02:49.258Z,5.30
2023-05-22T08:05:17.511Z,5.30
2023-05-22T08:07:45.659Z,11.12
2023-05-22T08:10:18.174Z,16.15
2023-05-22T08:12:46.316Z,9.95
2023-05-22T08:15:14.528Z,5.57
2023-05-22T08:17:42.522Z,5.40
2023-05-22T08:20:11.632Z,8.43
2023-05-22T08:22:40.852Z,10.02
2023-05-22T08:25:09.227Z,9.60
2023-05-22T08:27:37.178Z,9.05
2023-05-22T08:30:06.020Z,7.62
2023-05-22T08:32:34.053Z,8.25
2023-05-22T08:35:02.764Z,7.97
2023-05-22T08:37:30.801Z,9.85
2023-05-22T08:39:58.699Z,10.23
2023-05-22T08:42:26.652Z,8.35
2023-05-22T08:44:56.778Z,7.72
2023-05-22T08:47:28.127Z,13.07
2023-05-22T08:49:59.409Z,7.90
2023-05-22T08:52:34.692Z,7.53
2023-05-22T08:55:06.902Z,7.68
2023-05-22T08:57:36.142Z,11.23
2023-05-22T09:00:05.084Z,7.62
2023-05-22T09:02:33.588Z,9.77
2023-05-22T09:05:03.369Z,8.68
2023-05-22T09:07:31.324Z,7.80
2023-05-22T09:09:59.298Z,8.60
2023-05-22T09:12:28.462Z,8.60
2023-05-22T09:14:57.318Z,7.22
2023-05-22T09:17:25.403Z,7.53
2023-05-22T09:19:53.456Z,7.40
2023-05-22T09:22:23.595Z,8.68
2023-05-22T09:24:52.343Z,7.05
2023-05-22T09:27:24.610Z,8.90
2023-05-22T09:29:54.236Z,8.20
2023-05-22T09:32:22.376Z,9.10
2023-05-22T09:34:51.146Z,8.63
2023-05-22T09:37:19.573Z,8.45
2023-05-22T09:39:54.191Z,8.90
2023-05-22T09:42:22.065Z,11.88
2023-05-22T09:44:51.152Z,9.88
2023-05-22T09:47:19.172Z,8.75
2023-05-22T09:49:47.772Z,8.35
2023-05-22T09:52:18.064Z,8.00
2023-05-22T09:54:57.134Z,9.48
2023-05-22T09:57:27.979Z,8.38
2023-05-22T09:59:59.800Z,9.95
2023-05-22T10:02:29.464Z,8.75
2023-05-22T10:04:58.008Z,8.13
2023-05-22T10:07:33.708Z,10.40
2023-05-22T10:10:06.552Z,8.95
2023-05-22T10:12:39.148Z,9.98
2023-05-22T10:15:08.795Z,9.50
2023-05-22T10:17:38.155Z,9.23
2023-05-22T10:20:09.272Z,10.98
2023-05-22T10:22:39.095Z,12.75
2023-05-22T10:25:09.847Z,8.07
2023-05-22T10:27:39.624Z,10.38
2023-05-22T10:30:35.497Z,8.38
2023-05-22T10:33:14.236Z,7.53
2023-05-22T10:35:58.430Z,11.20
2023-05-22T10:38:54.379Z,8.93
2023-05-22T10:41:24.224Z,11.43
2023-05-22T10:43:52.654Z,8.00
2023-05-22T10:46:20.975Z,7.50
2023-05-22T10:48:50.200Z,7.55
2023-05-22T10:51:27.433Z,7.32
2023-05-22T10:54:06.621Z,8.18
2023-05-22T10:56:36.647Z,6.95
2023-05-22T10:59:07.201Z,7.75
2023-05-22T11:01:39.333Z,7.82
2023-05-22T11:04:10.213Z,6.97
2023-05-22T11:06:47.791Z,6.60
2023-05-22T11:09:49.978Z,7.28
2023-05-22T11:12:22.654Z,7.50
2023-05-22T11:14:52.804Z,7.40
2023-05-22T11:17:31.622Z,7.97
2023-05-22T11:20:07.427Z,9.82
2023-05-22T11:22:36.625Z,7.93
2023-05-22T11:25:09.966Z,7.65
2023-05-22T11:27:40.416Z,9.13
2023-05-22T11:30:09.686Z,8.38
2023-05-22T11:32:38.912Z,7.68
2023-05-22T11:35:09.670Z,8.57
2023-05-22T11:37:41.326Z,7.07
2023-05-22T11:40:10.480Z,6.43
2023-05-22T11:42:39.082Z,7.60
2023-05-22T11:45:08.079Z,7.75
2023-05-22T11:47:36.145Z,7.53
2023-05-22T11:50:04.581Z,7.78
2023-05-22T11:52:36.801Z,7.78
2023-05-22T11:55:09.175Z,7.28
2023-05-22T11:57:38.193Z,5.85
2023-05-22T12:00:09.404Z,6.20
2023-05-22T12:02:38.410Z,5.87
2023-05-22T12:05:06.865Z,6.55
2023-05-22T12:07:34.935Z,7.43
2023-05-22T12:10:05.046Z,6.95
2023-05-22T12:12:33.094Z,6.10
2023-05-22T12:15:01.082Z,5.47
2023-05-22T12:17:30.108Z,6.03
2023-05-22T12:19:59.142Z,6.00
2023-05-22T12:22:31.043Z,6.12
2023-05-22T12:24:58.997Z,6.25
2023-05-22T12:27:33.163Z,5.87
2023-05-22T12:30:10.618Z,5.72
2023-05-22T12:32:38.625Z,6.37
2023-05-22T12:35:06.983Z,6.07
2023-05-22T12:37:35.482Z,6.32
2023-05-22T12:40:06.110Z,6.10
2023-05-22T12:42:34.103Z,6.05
2023-05-22T12:45:02.125Z,5.32
2023-05-22T12:47:30.144Z,5.47
2023-05-22T12:49:58.145Z,6.32
2023-05-22T12:52:26.220Z,5.85
2023-05-22T12:54:54.119Z,4.82
2023-05-22T12:57:22.011Z,5.03
2023-05-22T12:59:49.977Z,4.45
2023-05-22T13:02:17.901Z,5.97
2023-05-22T13:04:45.820Z,7.28
2023-05-22T13:07:13.746Z,4.55
2023-05-22T13:09:41.757Z,4.68
2023-05-22T13:12:11.613Z,5.07
2023-05-22T13:14:41.597Z,4.75
2023-05-22T13:17:09.746Z,4.75
2023-05-22T13:19:37.712Z,4.62
2023-05-22T13:22:06.293Z,4.95
2023-05-22T13:24:34.280Z,4.72
2023-05-22T13:27:03.142Z,5.20
2023-05-22T13:29:31.050Z,5.85
2023-05-22T13:31:58.999Z,4.70
2023-05-22T13:34:27.008Z,4.57
2023-05-22T13:36:55.865Z,6.07
2023-05-22T13:39:24.172Z,5.90
2023-05-22T13:41:54.100Z,4.50
2023-05-22T13:44:22.625Z,4.40
2023-05-22T13:46:51.070Z,3.92
2023-05-22T13:49:19.119Z,4.12
2023-05-22T13:51:47.316Z,4.45
2023-05-22T13:54:15.328Z,4.72
2023-05-22T13:56:43.507Z,4.28
2023-05-22T13:59:12.023Z,4.55
2023-05-22T14:01:40.048Z,5.78
2023-05-22T14:04:08.168Z,4.12
2023-05-22T14:06:36.217Z,5.75
2023-05-22T14:09:04.927Z,4.60
2023-05-22T14:11:32.945Z,5.10
2023-05-22T14:14:01.061Z,4.78
2023-05-22T14:16:29.195Z,6.60
2023-05-22T14:18:57.474Z,4.12
2023-05-22T14:21:25.478Z,4.28
2023-05-22T14:23:53.799Z,3.62
2023-05-22T14:26:23.457Z,4.47
2023-05-22T14:28:52.054Z,5.68
2023-05-22T14:31:20.181Z,6.25
2023-05-22T14:33:48.178Z,5.37
2023-05-22T14:36:16.170Z,6.18
2023-05-22T14:38:44.152Z,4.95
2023-05-22T14:41:12.155Z,4.35
2023-05-22T14:43:40.171Z,4.90
2023-05-22T14:46:08.301Z,5.62
2023-05-22T14:48:36.358Z,5.85
2023-05-22T14:51:04.285Z,4.87
2023-05-22T14:53:32.249Z,4.40
2023-05-22T14:56:00.343Z,4.40
2023-05-22T14:58:28.268Z,5.40
2023-05-22T15:00:56.242Z,4.28
2023-05-22T15:03:24.958Z,4.40
2023-05-22T15:05:52.900Z,4.50
2023-05-22T15:08:21.414Z,4.25
2023-05-22T15:10:49.553Z,4.68
2023-05-22T15:13:17.528Z,4.62
2023-05-22T15:15:46.438Z,4.32
2023-05-22T15:18:14.712Z,4.53
2023-05-22T15:20:42.763Z,4.32
2023-05-22T15:23:10.632Z,5.57
2023-05-22T15:25:39.121Z,6.15
2023-05-22T15:28:08.846Z,4.45
2023-05-22T15:30:37.815Z,5.45
2023-05-22T15:33:06.290Z,4.82
2023-05-22T15:35:34.271Z,6.00
2023-05-22T15:38:02.437Z,4.75
2023-05-22T15:40:30.636Z,5.07
2023-05-22T15:42:58.607Z,4.37
2023-05-22T15:45:26.546Z,4.93
2023-05-22T15:47:54.703Z,5.75
2023-05-22T15:50:22.677Z,4.55
2023-05-22T15:52:50.625Z,6.80
2023-05-22T15:55:18.563Z,4.50
2023-05-22T15:57:46.567Z,4.90
2023-05-22T16:00:16.510Z,5.45
2023-05-22T16:02:45.856Z,5.18
2023-05-22T16:05:13.856Z,4.40
2023-05-22T16:07:41.782Z,5.87
2023-05-22T16:10:10.350Z,4.85
2023-05-22T16:12:42.880Z,5.07
2023-05-22T16:15:11.254Z,5.05
2023-05-22T16:17:39.668Z,6.00
2023-05-22T16:20:09.847Z,5.85
2023-05-22T16:22:48.288Z,5.07
2023-05-22T16:25:18.385Z,5.07
2023-05-22T16:27:46.919Z,5.75
2023-05-22T16:30:18.698Z,5.12
2023-05-22T16:32:48.110Z,4.55
2023-05-22T16:35:17.296Z,4.93
2023-05-22T16:37:45.382Z,5.35
2023-05-22T16:40:13.539Z,5.62
2023-05-22T16:42:41.557Z,7.62
2023-05-22T16:45:09.916Z,5.72
2023-05-22T16:47:37.902Z,5.32
2023-05-22T16:50:06.361Z,5.55
2023-05-22T16:52:34.461Z,4.85
2023-05-22T16:55:02.610Z,4.75
2023-05-22T16:57:30.591Z,5.10
2023-05-22T16:59:58.560Z,5.15
2023-05-22T17:02:26.946Z,6.68
2023-05-22T17:04:55.844Z,5.75
2023-05-22T17:07:23.921Z,4.78
2023-05-22T17:09:51.884Z,5.18
2023-05-22T17:12:19.863Z,5.30
2023-05-22T17:14:47.951Z,4.78
2023-05-22T17:17:15.985Z,4.32
2023-05-22T17:19:43.930Z,5.03
2023-05-22T17:22:11.946Z,4.50
2023-05-22T17:24:39.914Z,5.00
2023-05-22T17:27:08.066Z,4.10
2023-05-22T17:29:36.033Z,4.72
2023-05-22T17:32:07.530Z,4.93
2023-05-22T17:34:35.728Z,4.37
2023-05-22T17:37:03.739Z,6.68
2023-05-22T17:39:31.956Z,8.57
2023-05-22T17:42:00.585Z,6.60
2023-05-22T17:44:28.720Z,7.30
2023-05-22T17:46:56.605Z,4.37
2023-05-22T17:49:24.622Z,5.37
2023-05-22T17:51:52.659Z,5.30
2023-05-22T17:54:20.587Z,4.28
2023-05-22T17:56:48.563Z,5.47
2023-05-22T17:59:16.701Z,4.70
2023-05-22T18:01:45.377Z,4.68
2023-05-22T18:04:13.813Z,8.63
2023-05-22T18:06:41.870Z,4.30
2023-05-22T18:09:09.806Z,4.70
2023-05-22T18:11:37.824Z,4.20
2023-05-22T18:14:06.004Z,4.00
2023-05-22T18:16:34.041Z,4.68
2023-05-22T18:19:02.465Z,4.55
2023-05-22T18:21:30.441Z,5.75
2023-05-22T18:23:58.444Z,4.53
2023-05-22T18:26:26.389Z,6.32
2023-05-22T18:28:54.373Z,4.50
2023-05-22T18:31:23.477Z,4.87
2023-05-22T18:33:51.600Z,4.32
2023-05-22T18:36:19.550Z,4.50
2023-05-22T18:38:47.658Z,4.32
2023-05-22T18:41:15.690Z,4.25
2023-05-22T18:43:44.631Z,4.25
2023-05-22T18:46:12.979Z,4.62
2023-05-22T18:48:40.942Z,4.35
2023-05-22T18:51:08.943Z,4.40
2023-05-22T18:53:36.935Z,4.47
2023-05-22T18:56:04.843Z,4.37
2023-05-22T18:58:32.992Z,4.40
2023-05-22T19:01:01.168Z,6.70
2023-05-22T19:03:29.423Z,4.62
2023-05-22T19:05:57.419Z,6.07
2023-05-22T19:08:27.868Z,4.15
2023-05-22T19:10:59.063Z,4.15
2023-05-22T19:13:27.435Z,4.78
2023-05-22T19:15:55.345Z,5.10
2023-05-22T19:18:23.281Z,5.60
2023-05-22T19:20:51.266Z,4.47
2023-05-22T19:23:19.857Z,5.32
2023-05-22T19:25:48.084Z,5.15
2023-05-22T19:28:16.139Z,5.87
2023-05-22T19:30:44.333Z,6.65
2023-05-22T19:33:13.262Z,5.57
2023-05-22T19:35:41.775Z,5.22
2023-05-22T19:38:09.832Z,5.30
2023-05-22T19:40:37.909Z,4.65
2023-05-22T19:43:06.148Z,5.95
2023-05-22T19:45:34.088Z,5.60
2023-05-22T19:48:02.200Z,5.47
2023-05-22T19:50:30.256Z,4.82
2023-05-22T19:52:58.132Z,5.30
2023-05-22T19:55:26.226Z,5.37
2023-05-22T19:57:54.575Z,5.35
2023-05-22T20:00:22.570Z,6.65
2023-05-22T20:02:50.610Z,6.35
2023-05-22T20:05:18.632Z,6.78
2023-05-22T20:07:48.381Z,6.57
2023-05-22T20:10:16.388Z,6.93
2023-05-22T20:12:44.658Z,6.60
2023-05-22T20:15:16.045Z,5.40
2023-05-22T20:17:48.688Z,6.50
2023-05-22T20:20:16.649Z,4.97
2023-05-22T20:22:44.722Z,6.57
2023-05-22T20:25:12.889Z,5.87
2023-05-22T20:27:40.952Z,6.82
2023-05-22T20:30:12.596Z,5.30
2023-05-22T20:32:40.745Z,6.22
2023-05-22T20:35:09.144Z,5.10
2023-05-22T20:37:37.335Z,5.90
2023-05-22T20:40:06.536Z,5.43
2023-05-22T20:42:34.538Z,5.97
2023-05-22T20:45:02.588Z,6.65
2023-05-22T20:47:30.624Z,6.00
2023-05-22T20:49:58.596Z,5.70
2023-05-22T20:52:27.048Z,7.62
2023-05-22T20:54:55.049Z,6.00
2023-05-22T20:57:22.929Z,8.00
2023-05-22T20:59:50.990Z,6.47
2023-05-22T21:02:19.173Z,6.60
2023-05-22T21:04:47.157Z,6.53
2023-05-22T21:07:15.269Z,6.00
2023-05-22T21:09:43.234Z,6.05
2023-05-22T21:12:11.259Z,5.95
2023-05-22T21:14:39.164Z,5.30
2023-05-22T21:17:07.753Z,6.60
2023-05-22T21:19:35.727Z,6.25
2023-05-22T21:22:03.770Z,8.00
2023-05-22T21:24:33.647Z,5.93
2023-05-22T21:27:02.036Z,6.82
2023-05-22T21:29:29.948Z,6.10
2023-05-22T21:31:57.956Z,6.03
2023-05-22T21:34:25.881Z,6.30
2023-05-22T21:36:53.943Z,6.05
2023-05-22T21:39:21.899Z,6.55
2023-05-22T21:41:50.534Z,5.97
2023-05-22T21:44:19.827Z,7.30
2023-05-22T21:46:47.773Z,5.12
2023-05-22T21:49:16.261Z,6.05
2023-05-22T21:51:44.259Z,6.07
2023-05-22T21:54:12.267Z,7.15
2023-05-22T21:56:40.275Z,5.93
2023-05-22T21:59:08.237Z,6.05
2023-05-22T22:01:36.244Z,6.10
2023-05-22T22:04:04.917Z,6.32
2023-05-22T22:06:33.575Z,6.55
2023-05-22T22:09:01.626Z,6.82
2023-05-22T22:11:29.532Z,6.07
2023-05-22T22:13:57.648Z,6.72
2023-05-22T22:16:25.744Z,7.82
2023-05-22T22:18:53.770Z,7.72
2023-05-22T22:21:21.874Z,7.65
2023-05-22T22:23:49.788Z,6.90
2023-05-22T22:26:17.749Z,6.70
2023-05-22T22:28:45.725Z,7.20
2023-05-22T22:31:13.703Z,8.45
2023-05-22T22:33:41.963Z,8.25
2023-05-22T22:36:10.138Z,7.87
2023-05-22T22:38:39.743Z,8.05
2023-05-22T22:41:09.948Z,7.97
2023-05-22T22:43:38.075Z,8.90
2023-05-22T22:46:06.065Z,10.85
2023-05-22T22:48:35.102Z,8.60
2023-05-22T22:51:03.676Z,8.65
2023-05-22T22:53:31.728Z,9.25
2023-05-22T22:56:00.523Z,9.05
2023-05-22T22:58:28.803Z,7.82
2023-05-22T23:00:56.926Z,8.57
2023-05-22T23:03:24.791Z,7.30
2023-05-22T23:05:52.908Z,9.48
2023-05-22T23:08:20.840Z,8.55
2023-05-22T23:10:48.767Z,8.10
2023-05-22T23:13:17.424Z,7.93
2023-05-22T23:15:45.453Z,8.25
2023-05-22T23:18:15.168Z,8.57
2023-05-22T23:20:43.162Z,7.45
2023-05-22T23:23:11.075Z,8.13
2023-05-22T23:25:39.224Z,9.43
2023-05-22T23:28:08.163Z,7.15
2023-05-22T23:30:36.093Z,8.75
2023-05-22T23:33:04.109Z,8.13
2023-05-22T23:35:32.474Z,8.10
2023-05-22T23:38:00.396Z,10.23
2023-05-22T23:40:28.735Z,8.65
2023-05-22T23:42:56.757Z,7.80
2023-05-22T23:45:24.694Z,7.95
2023-05-22T23:47:52.672Z,8.07
2023-05-22T23:50:20.676Z,7.70
2023-05-22T23:52:49.561Z,8.35
2023-05-22T23:55:17.620Z,8.07
2023-05-22T23:57:45.548Z,7.30
